Terminal Aerodrome Forecast
Issued by NWS Central Illinois

Home | Current Version | Previous Version | Text Only | Print | Product List | Glossary On
Versions: 1 2 3 4 5 6 7 8 9 10 11 12 13 14 15 16 17 18 19 20 21 22 23 24
000
FTUS43 KILX 281739
TAFSPI
TAF
KSPI 281739Z 2818/2918 19014G22KT P6SM SCT025 BKN100
      TEMPO 2818/2821 BKN025
     FM282100 19013G20KT P6SM VCTS SCT035CB BKN120
      TEMPO 2822/2824 4SM TSRA BR BKN025CB
     FM290100 20008KT P6SM SCT040 BKN120
     FM291400 26011KT P6SM SCT035=

USA.gov is the U.S. government's official web portal to all federal, state and local government web resources and services.